createdAt,value
2022-11-06T00:03:34.136Z,100.00
2022-11-06T00:06:19.661Z,100.00
2022-11-06T00:08:46.400Z,100.00
2022-11-06T00:11:16.030Z,100.00
2022-11-06T00:13:43.354Z,100.00
2022-11-06T00:16:12.276Z,100.00
2022-11-06T00:18:39.606Z,100.00
2022-11-06T00:21:08.482Z,100.00
2022-11-06T00:23:35.471Z,100.00
2022-11-06T00:26:05.966Z,100.00
2022-11-06T00:28:32.653Z,100.00
2022-11-06T00:31:06.832Z,100.00
2022-11-06T00:33:33.891Z,100.00
2022-11-06T00:36:04.152Z,100.00
2022-11-06T00:38:31.827Z,100.00
2022-11-06T00:41:10.070Z,100.00
2022-11-06T00:43:36.944Z,100.00
2022-11-06T00:46:08.552Z,100.00
2022-11-06T00:48:36.141Z,100.00
2022-11-06T00:51:11.125Z,100.00
2022-11-06T00:53:38.162Z,100.00
2022-11-06T00:56:19.161Z,100.00
2022-11-06T00:58:46.971Z,100.00
2022-11-06T01:01:23.257Z,100.00
2022-11-06T01:03:55.676Z,100.00
2022-11-06T01:06:25.893Z,100.00
2022-11-06T01:08:52.812Z,100.00
2022-11-06T01:11:37.468Z,100.00
2022-11-06T01:14:15.473Z,100.00
2022-11-06T01:16:42.344Z,100.00
2022-11-06T01:19:12.081Z,100.00
2022-11-06T01:21:40.922Z,100.00
2022-11-06T01:24:12.135Z,100.00
2022-11-06T01:26:49.075Z,100.00
2022-11-06T01:29:25.740Z,100.00
2022-11-06T01:31:52.476Z,100.00
2022-11-06T01:34:19.778Z,100.00
2022-11-06T01:36:46.903Z,100.00
2022-11-06T01:39:15.621Z,100.00
2022-11-06T01:41:46.653Z,100.00
2022-11-06T01:44:41.437Z,100.00
2022-11-06T01:47:22.712Z,100.00
2022-11-06T01:49:51.541Z,100.00
2022-11-06T01:52:20.396Z,100.00
2022-11-06T01:54:51.482Z,100.00
2022-11-06T01:57:18.566Z,100.00
2022-11-06T01:59:45.970Z,100.00
2022-11-06T02:02:16.458Z,100.00
2022-11-06T02:04:46.407Z,100.00
2022-11-06T02:07:13.334Z,100.00
2022-11-06T02:09:40.369Z,100.00
2022-11-06T02:12:36.411Z,100.00
2022-11-06T02:15:18.084Z,100.00
2022-11-06T02:18:12.664Z,100.00
2022-11-06T02:21:19.701Z,100.00
2022-11-06T02:23:55.824Z,100.00
2022-11-06T02:27:00.339Z,100.00
2022-11-06T02:29:40.420Z,100.00
2022-11-06T02:32:23.212Z,100.00
2022-11-06T02:34:53.460Z,100.00
2022-11-06T02:37:28.332Z,100.00
2022-11-06T02:39:58.932Z,100.00
2022-11-06T02:42:28.541Z,100.00
2022-11-06T02:44:58.215Z,100.00
2022-11-06T02:47:30.270Z,100.00
2022-11-06T02:50:12.310Z,100.00
2022-11-06T02:52:46.447Z,100.00
2022-11-06T02:57:53.284Z,100.00
2022-11-06T03:00:22.236Z,100.00
2022-11-06T03:02:54.864Z,100.00
2022-11-06T03:05:33.758Z,100.00
2022-11-06T03:08:14.268Z,100.00
2022-11-06T03:11:14.152Z,100.00
2022-11-06T03:14:10.251Z,100.00
2022-11-06T03:17:00.300Z,100.00
2022-11-06T03:19:33.245Z,100.00
2022-11-06T03:22:26.162Z,100.00
2022-11-06T03:24:58.625Z,100.00
2022-11-06T03:27:42.216Z,100.00
2022-11-06T03:30:16.255Z,100.00
2022-11-06T03:33:02.220Z,100.00
2022-11-06T03:35:36.399Z,100.00
2022-11-06T03:38:20.703Z,100.00
2022-11-06T03:40:53.147Z,100.00
2022-11-06T03:43:24.815Z,100.00
2022-11-06T03:45:52.832Z,100.00
2022-11-06T03:48:31.456Z,100.00
2022-11-06T03:51:10.162Z,100.00
2022-11-06T03:53:36.813Z,100.00
2022-11-06T03:56:16.681Z,100.00
2022-11-06T03:58:47.911Z,100.00
2022-11-06T04:01:19.168Z,100.00
2022-11-06T04:03:52.276Z,100.00
2022-11-06T04:06:35.779Z,100.00
2022-11-06T04:09:25.108Z,100.00
2022-11-06T04:12:12.231Z,100.00
2022-11-06T04:14:42.286Z,100.00
2022-11-06T04:17:12.476Z,100.00
2022-11-06T04:19:52.131Z,100.00
2022-11-06T04:22:40.591Z,100.00
2022-11-06T04:25:50.961Z,100.00
2022-11-06T04:28:36.992Z,100.00
2022-11-06T04:31:12.947Z,100.00
2022-11-06T04:33:53.971Z,100.00
2022-11-06T04:36:43.995Z,100.00
2022-11-06T04:39:20.116Z,100.00
2022-11-06T04:41:59.108Z,100.00
2022-11-06T04:44:37.300Z,100.00
2022-11-06T04:47:09.833Z,100.00
2022-11-06T04:49:40.844Z,100.00
2022-11-06T04:52:13.608Z,100.00
2022-11-06T04:54:40.991Z,100.00
2022-11-06T04:57:08.075Z,100.00
2022-11-06T04:59:37.315Z,100.00
2022-11-06T05:02:05.527Z,100.00
2022-11-06T05:04:32.861Z,100.00
2022-11-06T05:06:59.842Z,100.00
2022-11-06T05:09:26.572Z,100.00
2022-11-06T05:11:53.407Z,100.00
2022-11-06T05:14:20.220Z,100.00
2022-11-06T05:16:46.937Z,100.00
2022-11-06T05:19:13.680Z,100.00
2022-11-06T05:21:58.970Z,100.00
2022-11-06T05:24:25.682Z,100.00
2022-11-06T05:26:57.862Z,100.00
2022-11-06T05:29:26.101Z,100.00
2022-11-06T05:31:52.777Z,100.00
2022-11-06T05:34:19.512Z,100.00
2022-11-06T05:36:46.190Z,100.00
2022-11-06T05:39:12.940Z,100.00
2022-11-06T05:41:39.912Z,100.00
2022-11-06T05:44:07.711Z,100.00
2022-11-06T05:46:50.302Z,100.00
2022-11-06T05:49:18.602Z,100.00
2022-11-06T05:51:45.686Z,100.00
2022-11-06T05:54:12.624Z,100.00
2022-11-06T05:56:39.437Z,100.00
2022-11-06T05:59:06.237Z,100.00
2022-11-06T06:01:33.049Z,100.00
2022-11-06T06:03:59.866Z,100.00
2022-11-06T06:06:27.064Z,100.00
2022-11-06T06:08:53.791Z,100.00
2022-11-06T06:11:20.537Z,100.00
2022-11-06T06:13:48.594Z,100.00
2022-11-06T06:16:16.062Z,100.00
2022-11-06T06:18:42.892Z,100.00
2022-11-06T06:21:09.681Z,100.00
2022-11-06T06:23:36.403Z,100.00
2022-11-06T06:26:03.244Z,100.00
2022-11-06T06:28:29.977Z,100.00
2022-11-06T06:31:01.184Z,100.00
2022-11-06T06:33:28.828Z,100.00
2022-11-06T06:35:58.434Z,100.00
2022-11-06T06:38:26.128Z,100.00
2022-11-06T06:40:53.939Z,100.00
2022-11-06T06:43:20.880Z,100.00
2022-11-06T06:45:47.658Z,100.00
2022-11-06T06:48:15.051Z,100.00
2022-11-06T06:50:42.006Z,100.00
2022-11-06T06:53:08.703Z,100.00
2022-11-06T06:55:35.438Z,100.00
2022-11-06T06:58:02.386Z,100.00
2022-11-06T07:00:29.714Z,100.00
2022-11-06T07:02:56.673Z,100.00
2022-11-06T07:05:23.427Z,100.00
2022-11-06T07:07:50.268Z,100.00
2022-11-06T07:10:17.156Z,100.00
2022-11-06T07:12:43.942Z,100.00
2022-11-06T07:15:10.948Z,100.00
2022-11-06T07:17:37.656Z,100.00
2022-11-06T07:20:05.666Z,100.00
2022-11-06T07:22:37.051Z,100.00
2022-11-06T07:25:06.245Z,100.00
2022-11-06T07:27:33.759Z,100.00
2022-11-06T07:30:00.803Z,100.00
2022-11-06T07:32:28.126Z,100.00
2022-11-06T07:34:54.842Z,100.00
2022-11-06T07:37:21.952Z,100.00
2022-11-06T07:39:48.628Z,100.00
2022-11-06T07:42:15.369Z,100.00
2022-11-06T07:44:42.068Z,100.00
2022-11-06T07:47:08.760Z,100.00
2022-11-06T07:49:35.531Z,100.00
2022-11-06T07:52:02.234Z,100.00
2022-11-06T07:54:28.923Z,100.00
2022-11-06T07:56:55.737Z,100.00
2022-11-06T07:59:22.800Z,100.00
2022-11-06T08:01:49.682Z,100.00
2022-11-06T08:04:16.524Z,100.00
2022-11-06T08:06:43.243Z,100.00
2022-11-06T08:09:10.264Z,100.00
2022-11-06T08:11:37.027Z,100.00
2022-11-06T08:14:03.982Z,100.00
2022-11-06T08:16:31.279Z,100.00
2022-11-06T08:18:58.290Z,100.00
2022-11-06T08:21:25.102Z,100.00
2022-11-06T08:23:51.925Z,100.00
2022-11-06T08:26:19.357Z,100.00
2022-11-06T08:28:46.114Z,100.00
2022-11-06T08:31:12.997Z,100.00
2022-11-06T08:33:40.597Z,100.00
2022-11-06T08:36:09.132Z,100.00
2022-11-06T08:38:36.959Z,100.00
2022-11-06T08:41:08.419Z,100.00
2022-11-06T08:43:38.011Z,100.00
2022-11-06T08:46:09.011Z,100.00
2022-11-06T08:48:36.239Z,100.00
2022-11-06T08:51:05.955Z,100.00
2022-11-06T08:53:32.721Z,100.00
2022-11-06T08:56:02.310Z,100.00
2022-11-06T08:58:29.093Z,100.00
2022-11-06T09:00:56.083Z,100.00
2022-11-06T09:03:22.853Z,100.00
2022-11-06T09:05:49.581Z,100.00
2022-11-06T09:08:16.417Z,100.00
2022-11-06T09:10:44.342Z,100.00
2022-11-06T09:13:12.252Z,100.00
2022-11-06T09:15:39.593Z,100.00
2022-11-06T09:18:06.553Z,100.00
2022-11-06T09:20:33.418Z,100.00
2022-11-06T09:23:02.511Z,100.00
2022-11-06T09:25:29.847Z,100.00
2022-11-06T09:27:59.481Z,100.00
2022-11-06T09:30:28.202Z,100.00
2022-11-06T09:32:58.262Z,100.00
2022-11-06T09:35:25.996Z,100.00
2022-11-06T09:37:53.052Z,100.00
2022-11-06T09:40:27.493Z,100.00
2022-11-06T09:43:27.255Z,100.00
2022-11-06T09:46:12.080Z,100.00
2022-11-06T09:48:43.075Z,100.00
2022-11-06T09:51:17.581Z,100.00
2022-11-06T09:53:54.781Z,100.00
2022-11-06T09:56:25.963Z,100.00
2022-11-06T09:58:53.994Z,100.00
2022-11-06T10:01:36.223Z,100.00
2022-11-06T10:04:04.976Z,100.00
2022-11-06T10:06:33.208Z,100.00
2022-11-06T10:09:06.261Z,100.00
2022-11-06T10:11:44.742Z,100.00
2022-11-06T10:14:32.947Z,100.00
2022-11-06T10:17:21.186Z,100.00
2022-11-06T10:20:04.442Z,100.00
2022-11-06T10:22:41.414Z,100.00
2022-11-06T10:25:45.828Z,100.00
2022-11-06T10:28:44.854Z,100.00
2022-11-06T10:31:40.243Z,100.00
2022-11-06T10:34:21.242Z,100.00
2022-11-06T10:36:53.346Z,100.00
2022-11-06T10:39:25.215Z,100.00
2022-11-06T10:42:05.544Z,100.00
2022-11-06T10:44:38.553Z,100.00
2022-11-06T10:47:15.833Z,100.00
2022-11-06T10:49:49.307Z,100.00
2022-11-06T10:52:31.171Z,100.00
2022-11-06T10:55:33.237Z,100.00
2022-11-06T10:58:04.596Z,100.00
2022-11-06T11:00:32.672Z,100.00
2022-11-06T11:03:01.587Z,100.00
2022-11-06T11:05:38.641Z,100.00
2022-11-06T11:08:06.013Z,100.00
2022-11-06T11:10:37.105Z,100.00
2022-11-06T11:13:08.739Z,100.00
2022-11-06T11:15:46.826Z,100.00
2022-11-06T11:18:14.352Z,100.00
2022-11-06T11:20:43.687Z,100.00
2022-11-06T11:23:26.367Z,100.00
2022-11-06T11:25:56.275Z,100.00
2022-11-06T11:28:29.620Z,100.00
2022-11-06T11:31:15.812Z,100.00
2022-11-06T11:33:51.543Z,100.00
2022-11-06T11:36:18.494Z,100.00
2022-11-06T11:38:45.538Z,100.00
2022-11-06T11:41:24.084Z,100.00
2022-11-06T11:44:04.588Z,100.00
2022-11-06T11:46:32.526Z,100.00
2022-11-06T11:49:00.751Z,100.00
2022-11-06T11:51:32.851Z,100.00
2022-11-06T11:54:12.224Z,100.00
2022-11-06T11:57:10.037Z,100.00
2022-11-06T12:00:03.376Z,100.00
2022-11-06T12:02:53.253Z,100.00
2022-11-06T12:05:28.885Z,100.00
2022-11-06T12:07:58.771Z,100.00
2022-11-06T12:10:43.452Z,100.00
2022-11-06T12:13:14.075Z,100.00
2022-11-06T12:15:55.510Z,100.00
2022-11-06T12:18:46.138Z,100.00
2022-11-06T12:21:28.017Z,100.00
2022-11-06T12:24:02.285Z,100.00
2022-11-06T12:26:35.011Z,100.00
2022-11-06T12:29:29.182Z,100.00
2022-11-06T12:32:01.086Z,100.00
2022-11-06T12:34:37.781Z,100.00
2022-11-06T12:37:12.197Z,100.00
2022-11-06T12:39:45.075Z,100.00
2022-11-06T12:42:13.975Z,100.00
2022-11-06T12:44:41.147Z,100.00
2022-11-06T12:47:29.541Z,100.00
2022-11-06T12:50:37.336Z,100.00
2022-11-06T12:53:08.171Z,86.96
2022-11-06T12:55:41.093Z,80.49
2022-11-06T12:58:35.593Z,76.63
2022-11-06T13:01:08.806Z,73.06
2022-11-06T13:03:46.703Z,73.11
2022-11-06T13:06:33.898Z,74.79
2022-11-06T13:09:09.044Z,71.35
2022-11-06T13:12:08.451Z,71.32
2022-11-06T13:15:01.421Z,70.63
2022-11-06T13:18:09.680Z,69.33
2022-11-06T13:20:52.789Z,67.26
2022-11-06T13:23:43.412Z,67.12
2022-11-06T13:26:34.018Z,69.89
2022-11-06T13:29:06.063Z,68.04
2022-11-06T13:31:47.790Z,69.57
2022-11-06T13:34:22.461Z,70.97
2022-11-06T13:36:50.205Z,70.73
2022-11-06T13:39:58.272Z,75.89
2022-11-06T13:42:41.794Z,78.18
2022-11-06T13:45:10.520Z,77.63
2022-11-06T13:48:04.071Z,72.99
2022-11-06T13:50:45.820Z,70.93
2022-11-06T13:53:26.431Z,69.47
2022-11-06T13:56:06.764Z,69.41
2022-11-06T13:58:58.321Z,70.00
2022-11-06T14:01:40.387Z,69.66
2022-11-06T14:04:28.921Z,68.36
2022-11-06T14:06:59.441Z,67.37
2022-11-06T14:09:30.179Z,67.33
2022-11-06T14:12:01.253Z,67.48
2022-11-06T14:14:31.962Z,68.08
2022-11-06T14:17:14.016Z,67.11
2022-11-06T14:19:51.085Z,70.13
2022-11-06T14:22:38.444Z,72.14
2022-11-06T14:25:30.093Z,71.72
2022-11-06T14:27:57.240Z,73.31
2022-11-06T14:30:50.288Z,74.62
2022-11-06T14:33:51.995Z,75.12
2022-11-06T14:36:25.172Z,74.61
2022-11-06T14:38:53.412Z,73.91
2022-11-06T14:41:35.687Z,73.64
2022-11-06T14:44:04.833Z,73.84
2022-11-06T14:46:33.322Z,74.37
2022-11-06T14:49:24.212Z,74.54
2022-11-06T14:52:01.381Z,76.42
2022-11-06T14:54:29.263Z,76.68
2022-11-06T14:56:57.125Z,78.15
2022-11-06T14:59:30.491Z,78.44
2022-11-06T15:02:23.157Z,79.53
2022-11-06T15:05:02.333Z,78.78
2022-11-06T15:08:03.266Z,80.06
2022-11-06T15:10:43.702Z,80.97
2022-11-06T15:13:25.303Z,80.71
2022-11-06T15:16:06.189Z,82.54
2022-11-06T15:18:36.587Z,82.24
2022-11-06T15:21:08.819Z,84.23
2022-11-06T15:23:58.873Z,84.89
2022-11-06T15:26:49.484Z,89.70
2022-11-06T15:29:16.590Z,93.43
2022-11-06T15:31:54.734Z,90.88
2022-11-06T15:34:25.420Z,95.90
2022-11-06T15:37:01.916Z,97.74
2022-11-06T15:40:00.689Z,100.00
2022-11-06T15:42:31.991Z,100.00
2022-11-06T15:45:20.193Z,100.00
2022-11-06T15:47:57.526Z,100.00
2022-11-06T15:50:27.431Z,100.00
2022-11-06T15:52:55.472Z,100.00
2022-11-06T15:55:38.610Z,100.00
2022-11-06T15:58:30.641Z,100.00
2022-11-06T16:01:00.375Z,100.00
2022-11-06T16:03:30.781Z,100.00
2022-11-06T16:06:01.581Z,100.00
2022-11-06T16:08:32.773Z,100.00
2022-11-06T16:11:01.865Z,100.00
2022-11-06T16:13:29.292Z,100.00
2022-11-06T16:16:00.618Z,100.00
2022-11-06T16:18:42.092Z,100.00
2022-11-06T16:21:20.185Z,100.00
2022-11-06T16:23:57.588Z,100.00
2022-11-06T16:26:38.030Z,100.00
2022-11-06T16:29:19.459Z,100.00
2022-11-06T16:31:48.746Z,100.00
2022-11-06T16:34:35.167Z,100.00
2022-11-06T16:37:05.935Z,100.00
2022-11-06T16:39:50.485Z,100.00
2022-11-06T16:42:28.671Z,100.00
2022-11-06T16:45:01.707Z,100.00
2022-11-06T16:47:30.373Z,100.00
2022-11-06T16:49:58.471Z,100.00
2022-11-06T16:52:33.637Z,100.00
2022-11-06T16:55:16.873Z,100.00
2022-11-06T16:57:56.580Z,100.00
2022-11-06T17:00:26.691Z,100.00
2022-11-06T17:03:06.169Z,100.00
2022-11-06T17:05:39.897Z,100.00
2022-11-06T17:08:23.484Z,100.00
2022-11-06T17:10:52.992Z,100.00
2022-11-06T17:13:26.417Z,100.00
2022-11-06T17:16:03.641Z,100.00
2022-11-06T17:18:32.576Z,100.00
2022-11-06T17:21:02.440Z,100.00
2022-11-06T17:23:31.430Z,100.00
2022-11-06T17:26:04.204Z,100.00
2022-11-06T17:28:31.996Z,100.00
2022-11-06T17:30:59.238Z,100.00
2022-11-06T17:33:26.898Z,100.00
2022-11-06T17:35:54.668Z,100.00
2022-11-06T17:38:22.864Z,100.00
2022-11-06T17:40:50.810Z,100.00
2022-11-06T17:43:19.108Z,100.00
2022-11-06T17:45:50.090Z,100.00
2022-11-06T17:48:18.812Z,100.00
2022-11-06T17:51:04.765Z,100.00
2022-11-06T17:53:34.725Z,100.00
2022-11-06T17:56:07.071Z,100.00
2022-11-06T17:58:35.304Z,100.00
2022-11-06T18:01:08.411Z,100.00
2022-11-06T18:03:37.054Z,100.00
2022-11-06T18:06:04.981Z,100.00
2022-11-06T18:08:33.845Z,100.00
2022-11-06T18:11:01.543Z,100.00
2022-11-06T18:13:32.442Z,100.00
2022-11-06T18:16:01.850Z,100.00
2022-11-06T18:18:29.899Z,100.00
2022-11-06T18:20:57.613Z,100.00
2022-11-06T18:23:25.250Z,100.00
2022-11-06T18:25:57.742Z,100.00
2022-11-06T18:28:26.332Z,100.00
2022-11-06T18:30:54.223Z,100.00
2022-11-06T18:33:26.844Z,100.00
2022-11-06T18:35:54.627Z,100.00
2022-11-06T18:38:23.301Z,100.00
2022-11-06T18:40:51.881Z,100.00
2022-11-06T18:43:19.790Z,100.00
2022-11-06T18:45:47.611Z,100.00
2022-11-06T18:48:21.013Z,100.00
2022-11-06T18:50:48.998Z,100.00
2022-11-06T18:53:17.922Z,100.00
2022-11-06T18:55:49.062Z,100.00
2022-11-06T18:58:20.260Z,100.00
2022-11-06T19:00:47.491Z,100.00
2022-11-06T19:03:15.289Z,100.00
2022-11-06T19:05:52.351Z,100.00
2022-11-06T19:08:21.766Z,100.00
2022-11-06T19:10:49.376Z,100.00
2022-11-06T19:13:18.126Z,100.00
2022-11-06T19:15:46.936Z,100.00
2022-11-06T19:18:16.196Z,100.00
2022-11-06T19:20:44.992Z,100.00
2022-11-06T19:23:15.178Z,100.00
2022-11-06T19:25:43.231Z,100.00
2022-11-06T19:28:11.606Z,100.00
2022-11-06T19:30:40.396Z,100.00
2022-11-06T19:33:07.654Z,100.00
2022-11-06T19:35:40.026Z,100.00
2022-11-06T19:38:10.516Z,100.00
2022-11-06T19:40:40.043Z,100.00
2022-11-06T19:43:09.164Z,100.00
2022-11-06T19:45:37.245Z,100.00
2022-11-06T19:48:06.533Z,100.00
2022-11-06T19:50:58.753Z,100.00
2022-11-06T19:53:28.852Z,100.00
2022-11-06T19:55:58.598Z,100.00
2022-11-06T19:58:36.094Z,100.00
2022-11-06T20:01:09.072Z,100.00
2022-11-06T20:03:37.861Z,100.00
2022-11-06T20:06:08.212Z,100.00
2022-11-06T20:08:42.232Z,100.00
2022-11-06T20:11:15.800Z,100.00
2022-11-06T20:13:44.789Z,100.00
2022-11-06T20:16:19.583Z,100.00
2022-11-06T20:19:03.434Z,100.00
2022-11-06T20:21:32.020Z,100.00
2022-11-06T20:23:59.363Z,100.00
2022-11-06T20:26:27.063Z,100.00
2022-11-06T20:28:54.961Z,100.00
2022-11-06T20:31:24.735Z,100.00
2022-11-06T20:33:53.259Z,100.00
2022-11-06T20:36:28.438Z,100.00
2022-11-06T20:38:59.259Z,100.00
2022-11-06T20:41:29.968Z,100.00
2022-11-06T20:44:01.817Z,100.00
2022-11-06T20:46:30.653Z,100.00
2022-11-06T20:49:00.133Z,100.00
2022-11-06T20:51:29.955Z,100.00
2022-11-06T20:54:02.920Z,100.00
2022-11-06T20:56:31.190Z,100.00
2022-11-06T20:58:58.799Z,100.00
2022-11-06T21:01:30.792Z,100.00
2022-11-06T21:03:58.894Z,100.00
2022-11-06T21:06:29.767Z,100.00
2022-11-06T21:08:57.622Z,100.00
2022-11-06T21:11:26.969Z,100.00
2022-11-06T21:13:55.236Z,100.00
2022-11-06T21:16:26.625Z,100.00
2022-11-06T21:18:54.909Z,100.00
2022-11-06T21:21:27.264Z,100.00
2022-11-06T21:23:55.522Z,100.00
2022-11-06T21:26:29.001Z,100.00
2022-11-06T21:28:56.774Z,100.00
2022-11-06T21:31:26.587Z,100.00
2022-11-06T21:33:56.796Z,100.00
2022-11-06T21:36:26.225Z,100.00
2022-11-06T21:38:54.906Z,100.00
2022-11-06T21:41:24.490Z,100.00
2022-11-06T21:43:52.118Z,100.00
2022-11-06T21:46:19.917Z,100.00
2022-11-06T21:48:48.124Z,100.00
2022-11-06T21:51:19.090Z,100.00
2022-11-06T21:54:04.354Z,100.00
2022-11-06T21:56:31.321Z,100.00
2022-11-06T21:59:00.032Z,100.00
2022-11-06T22:01:28.876Z,100.00
2022-11-06T22:03:56.921Z,100.00
2022-11-06T22:06:25.633Z,100.00
2022-11-06T22:08:54.291Z,100.00
2022-11-06T22:11:32.351Z,100.00
2022-11-06T22:14:03.286Z,100.00
2022-11-06T22:16:32.950Z,100.00
2022-11-06T22:18:59.843Z,100.00
2022-11-06T22:21:28.963Z,100.00
2022-11-06T22:23:56.493Z,100.00
2022-11-06T22:26:29.925Z,100.00
2022-11-06T22:29:02.616Z,100.00
2022-11-06T22:31:29.981Z,100.00
2022-11-06T22:33:57.185Z,100.00
2022-11-06T22:36:24.356Z,100.00
2022-11-06T22:38:51.521Z,100.00
2022-11-06T22:41:21.426Z,100.00
2022-11-06T22:43:48.234Z,100.00
2022-11-06T22:46:21.258Z,100.00
2022-11-06T22:48:49.053Z,100.00
2022-11-06T22:51:27.946Z,100.00
2022-11-06T22:53:55.329Z,100.00
2022-11-06T22:56:26.812Z,100.00
2022-11-06T22:58:55.230Z,100.00
2022-11-06T23:01:24.496Z,100.00
2022-11-06T23:03:56.704Z,100.00
2022-11-06T23:06:25.402Z,100.00
2022-11-06T23:08:52.520Z,100.00
2022-11-06T23:11:20.446Z,100.00
2022-11-06T23:13:48.251Z,100.00
2022-11-06T23:16:18.246Z,100.00
2022-11-06T23:18:45.224Z,100.00
2022-11-06T23:21:19.763Z,100.00
2022-11-06T23:23:46.921Z,100.00
2022-11-06T23:26:16.059Z,100.00
2022-11-06T23:28:45.868Z,100.00
2022-11-06T23:31:16.313Z,100.00
2022-11-06T23:33:43.829Z,100.00
2022-11-06T23:36:13.486Z,100.00
2022-11-06T23:38:40.383Z,100.00
2022-11-06T23:41:31.205Z,100.00
2022-11-06T23:43:58.951Z,100.00
2022-11-06T23:46:28.933Z,100.00
2022-11-06T23:48:56.401Z,100.00
2022-11-06T23:51:24.616Z,100.00
2022-11-06T23:53:52.110Z,100.00
2022-11-06T23:56:19.671Z,100.00
2022-11-06T23:58:46.380Z,100.00
